sensor_id;sensor_type;location;lat;lon;timestamp;P1;durP1;ratioP1;P2;durP2;ratioP2
8871;SDS011;4472;52.092;9.820;2023-11-18T00:01:06;34.57;;;23.63;;
8871;SDS011;4472;52.092;9.820;2023-11-18T00:04:06;34.43;;;22.40;;
8871;SDS011;4472;52.092;9.820;2023-11-18T00:07:00;50.57;;;27.60;;
8871;SDS011;4472;52.092;9.820;2023-11-18T00:09:49;96.20;;;45.93;;
8871;SDS011;4472;52.092;9.820;2023-11-18T00:12:36;61.73;;;32.67;;
8871;SDS011;4472;52.092;9.820;2023-11-18T00:15:28;66.60;;;34.80;;
8871;SDS011;4472;52.092;9.820;2023-11-18T00:18:15;54.40;;;32.27;;
8871;SDS011;4472;52.092;9.820;2023-11-18T00:21:02;58.07;;;32.83;;
8871;SDS011;4472;52.092;9.820;2023-11-18T00:23:50;51.03;;;32.40;;
8871;SDS011;4472;52.092;9.820;2023-11-18T00:26:37;49.90;;;30.73;;
8871;SDS011;4472;52.092;9.820;2023-11-18T00:29:24;47.57;;;29.93;;
8871;SDS011;4472;52.092;9.820;2023-11-18T00:32:13;42.13;;;27.73;;
8871;SDS011;4472;52.092;9.820;2023-11-18T00:35:00;39.50;;;27.10;;
8871;SDS011;4472;52.092;9.820;2023-11-18T00:37:50;39.47;;;27.23;;
8871;SDS011;4472;52.092;9.820;2023-11-18T00:40:37;40.27;;;26.63;;
8871;SDS011;4472;52.092;9.820;2023-11-18T00:43:24;37.13;;;23.77;;
8871;SDS011;4472;52.092;9.820;2023-11-18T00:46:11;36.73;;;24.90;;
8871;SDS011;4472;52.092;9.820;2023-11-18T00:49:00;42.47;;;25.03;;
8871;SDS011;4472;52.092;9.820;2023-11-18T00:51:47;39.30;;;25.40;;
8871;SDS011;4472;52.092;9.820;2023-11-18T00:54:34;37.60;;;25.73;;
8871;SDS011;4472;52.092;9.820;2023-11-18T00:57:21;36.67;;;26.13;;
8871;SDS011;4472;52.092;9.820;2023-11-18T01:00:11;38.13;;;26.97;;
8871;SDS011;4472;52.092;9.820;2023-11-18T01:03:01;45.17;;;26.43;;
8871;SDS011;4472;52.092;9.820;2023-11-18T01:05:50;41.80;;;26.63;;
8871;SDS011;4472;52.092;9.820;2023-11-18T01:08:37;40.27;;;26.80;;
8871;SDS011;4472;52.092;9.820;2023-11-18T01:11:25;40.50;;;27.20;;
8871;SDS011;4472;52.092;9.820;2023-11-18T01:14:12;39.90;;;26.23;;
8871;SDS011;4472;52.092;9.820;2023-11-18T01:16:59;40.37;;;27.07;;
8871;SDS011;4472;52.092;9.820;2023-11-18T01:19:47;39.23;;;27.07;;
8871;SDS011;4472;52.092;9.820;2023-11-18T01:22:35;40.57;;;27.73;;
8871;SDS011;4472;52.092;9.820;2023-11-18T01:25:23;42.30;;;26.97;;
8871;SDS011;4472;52.092;9.820;2023-11-18T01:28:10;39.60;;;28.00;;
8871;SDS011;4472;52.092;9.820;2023-11-18T01:31:00;42.57;;;27.30;;
8871;SDS011;4472;52.092;9.820;2023-11-18T01:33:49;37.93;;;26.60;;
8871;SDS011;4472;52.092;9.820;2023-11-18T01:36:36;45.87;;;29.50;;
8871;SDS011;4472;52.092;9.820;2023-11-18T01:39:25;49.23;;;27.83;;
8871;SDS011;4472;52.092;9.820;2023-11-18T01:42:13;43.73;;;27.83;;
8871;SDS011;4472;52.092;9.820;2023-11-18T01:45:01;45.67;;;28.50;;
8871;SDS011;4472;52.092;9.820;2023-11-18T01:47:49;42.57;;;26.90;;
8871;SDS011;4472;52.092;9.820;2023-11-18T01:50:37;44.47;;;27.27;;
8871;SDS011;4472;52.092;9.820;2023-11-18T01:53:25;44.33;;;28.07;;
8871;SDS011;4472;52.092;9.820;2023-11-18T01:56:14;48.80;;;27.33;;
8871;SDS011;4472;52.092;9.820;2023-11-18T01:59:02;43.03;;;27.07;;
8871;SDS011;4472;52.092;9.820;2023-11-18T02:01:50;43.97;;;27.13;;
8871;SDS011;4472;52.092;9.820;2023-11-18T02:04:43;44.57;;;27.20;;
8871;SDS011;4472;52.092;9.820;2023-11-18T02:07:30;42.97;;;25.47;;
8871;SDS011;4472;52.092;9.820;2023-11-18T02:10:19;44.33;;;26.17;;
8871;SDS011;4472;52.092;9.820;2023-11-18T02:13:15;43.00;;;26.73;;
8871;SDS011;4472;52.092;9.820;2023-11-18T02:16:10;46.73;;;26.27;;
8871;SDS011;4472;52.092;9.820;2023-11-18T02:18:58;50.53;;;26.67;;
8871;SDS011;4472;52.092;9.820;2023-11-18T02:21:46;42.80;;;25.37;;
8871;SDS011;4472;52.092;9.820;2023-11-18T02:24:35;47.50;;;26.07;;
8871;SDS011;4472;52.092;9.820;2023-11-18T02:27:24;44.33;;;25.70;;
8871;SDS011;4472;52.092;9.820;2023-11-18T02:30:12;48.40;;;26.27;;
8871;SDS011;4472;52.092;9.820;2023-11-18T02:33:03;45.97;;;25.63;;
8871;SDS011;4472;52.092;9.820;2023-11-18T02:36:01;47.90;;;26.10;;
8871;SDS011;4472;52.092;9.820;2023-11-18T02:38:55;49.40;;;27.67;;
8871;SDS011;4472;52.092;9.820;2023-11-18T02:41:46;47.00;;;26.30;;
8871;SDS011;4472;52.092;9.820;2023-11-18T02:44:36;50.80;;;27.47;;
8871;SDS011;4472;52.092;9.820;2023-11-18T02:47:25;48.33;;;27.17;;
8871;SDS011;4472;52.092;9.820;2023-11-18T02:50:13;48.93;;;26.87;;
8871;SDS011;4472;52.092;9.820;2023-11-18T02:53:00;47.97;;;26.93;;
8871;SDS011;4472;52.092;9.820;2023-11-18T02:55:48;53.20;;;27.07;;
8871;SDS011;4472;52.092;9.820;2023-11-18T02:58:37;48.43;;;25.90;;
8871;SDS011;4472;52.092;9.820;2023-11-18T03:01:26;51.43;;;27.03;;
8871;SDS011;4472;52.092;9.820;2023-11-18T03:04:13;48.73;;;26.50;;
8871;SDS011;4472;52.092;9.820;2023-11-18T03:07:00;48.20;;;27.33;;
8871;SDS011;4472;52.092;9.820;2023-11-18T03:09:47;48.73;;;26.80;;
8871;SDS011;4472;52.092;9.820;2023-11-18T03:12:34;53.20;;;27.80;;
8871;SDS011;4472;52.092;9.820;2023-11-18T03:15:22;55.80;;;28.20;;
8871;SDS011;4472;52.092;9.820;2023-11-18T03:18:10;60.10;;;29.30;;
8871;SDS011;4472;52.092;9.820;2023-11-18T03:20:58;53.10;;;27.37;;
8871;SDS011;4472;52.092;9.820;2023-11-18T03:23:45;58.80;;;27.73;;
8871;SDS011;4472;52.092;9.820;2023-11-18T03:26:33;55.63;;;29.30;;
8871;SDS011;4472;52.092;9.820;2023-11-18T03:29:20;54.80;;;29.43;;
8871;SDS011;4472;52.092;9.820;2023-11-18T03:32:08;53.27;;;26.73;;
8871;SDS011;4472;52.092;9.820;2023-11-18T03:34:56;54.53;;;28.90;;
8871;SDS011;4472;52.092;9.820;2023-11-18T03:37:44;52.10;;;27.53;;
8871;SDS011;4472;52.092;9.820;2023-11-18T03:40:31;61.03;;;28.53;;
8871;SDS011;4472;52.092;9.820;2023-11-18T03:43:20;54.27;;;27.43;;
8871;SDS011;4472;52.092;9.820;2023-11-18T03:46:07;52.23;;;29.27;;
8871;SDS011;4472;52.092;9.820;2023-11-18T03:48:56;62.23;;;29.67;;
8871;SDS011;4472;52.092;9.820;2023-11-18T03:51:44;54.77;;;28.83;;
8871;SDS011;4472;52.092;9.820;2023-11-18T03:54:31;55.80;;;28.47;;
8871;SDS011;4472;52.092;9.820;2023-11-18T03:57:19;50.90;;;28.73;;
8871;SDS011;4472;52.092;9.820;2023-11-18T04:00:07;56.17;;;30.87;;
8871;SDS011;4472;52.092;9.820;2023-11-18T04:02:56;60.00;;;31.13;;
8871;SDS011;4472;52.092;9.820;2023-11-18T04:05:44;60.43;;;31.30;;
8871;SDS011;4472;52.092;9.820;2023-11-18T04:08:34;50.60;;;28.23;;
8871;SDS011;4472;52.092;9.820;2023-11-18T04:11:21;52.37;;;29.93;;
8871;SDS011;4472;52.092;9.820;2023-11-18T04:14:09;57.33;;;29.93;;
8871;SDS011;4472;52.092;9.820;2023-11-18T04:16:56;50.83;;;28.90;;
8871;SDS011;4472;52.092;9.820;2023-11-18T04:19:43;57.93;;;30.13;;
8871;SDS011;4472;52.092;9.820;2023-11-18T04:22:31;63.40;;;31.43;;
8871;SDS011;4472;52.092;9.820;2023-11-18T04:25:22;61.63;;;31.30;;
8871;SDS011;4472;52.092;9.820;2023-11-18T04:28:10;57.20;;;30.83;;
8871;SDS011;4472;52.092;9.820;2023-11-18T04:30:58;57.93;;;29.90;;
8871;SDS011;4472;52.092;9.820;2023-11-18T04:33:46;58.63;;;31.33;;
8871;SDS011;4472;52.092;9.820;2023-11-18T04:36:33;61.77;;;31.07;;
8871;SDS011;4472;52.092;9.820;2023-11-18T04:39:20;60.07;;;30.73;;
8871;SDS011;4472;52.092;9.820;2023-11-18T04:42:09;52.50;;;28.53;;
8871;SDS011;4472;52.092;9.820;2023-11-18T04:44:57;62.50;;;32.23;;
8871;SDS011;4472;52.092;9.820;2023-11-18T04:47:44;60.70;;;30.50;;
8871;SDS011;4472;52.092;9.820;2023-11-18T04:50:32;66.13;;;31.10;;
8871;SDS011;4472;52.092;9.820;2023-11-18T04:53:19;65.03;;;33.03;;
8871;SDS011;4472;52.092;9.820;2023-11-18T04:56:07;73.37;;;32.53;;
8871;SDS011;4472;52.092;9.820;2023-11-18T04:58:57;69.07;;;31.77;;
8871;SDS011;4472;52.092;9.820;2023-11-18T05:01:44;62.83;;;31.53;;
8871;SDS011;4472;52.092;9.820;2023-11-18T05:04:31;63.40;;;32.13;;
8871;SDS011;4472;52.092;9.820;2023-11-18T05:07:18;67.20;;;32.53;;
8871;SDS011;4472;52.092;9.820;2023-11-18T05:10:07;66.77;;;30.73;;
8871;SDS011;4472;52.092;9.820;2023-11-18T05:12:55;72.03;;;33.27;;
8871;SDS011;4472;52.092;9.820;2023-11-18T05:15:44;62.97;;;31.03;;
8871;SDS011;4472;52.092;9.820;2023-11-18T05:18:32;73.93;;;31.27;;
8871;SDS011;4472;52.092;9.820;2023-11-18T05:21:21;81.30;;;33.27;;
8871;SDS011;4472;52.092;9.820;2023-11-18T05:24:08;80.83;;;33.00;;
8871;SDS011;4472;52.092;9.820;2023-11-18T05:26:56;78.40;;;32.80;;
8871;SDS011;4472;52.092;9.820;2023-11-18T05:29:47;65.70;;;31.03;;
8871;SDS011;4472;52.092;9.820;2023-11-18T05:32:41;59.37;;;30.40;;
8871;SDS011;4472;52.092;9.820;2023-11-18T05:35:28;66.30;;;31.43;;
8871;SDS011;4472;52.092;9.820;2023-11-18T05:38:15;71.47;;;31.83;;
8871;SDS011;4472;52.092;9.820;2023-11-18T05:41:04;65.90;;;31.93;;
8871;SDS011;4472;52.092;9.820;2023-11-18T05:44:01;69.87;;;32.47;;
8871;SDS011;4472;52.092;9.820;2023-11-18T05:46:49;68.13;;;32.70;;
8871;SDS011;4472;52.092;9.820;2023-11-18T05:49:38;55.80;;;30.00;;
8871;SDS011;4472;52.092;9.820;2023-11-18T05:52:25;61.50;;;29.07;;
8871;SDS011;4472;52.092;9.820;2023-11-18T05:55:12;61.00;;;29.00;;
8871;SDS011;4472;52.092;9.820;2023-11-18T05:58:00;65.17;;;30.00;;
8871;SDS011;4472;52.092;9.820;2023-11-18T06:00:47;59.03;;;28.53;;
8871;SDS011;4472;52.092;9.820;2023-11-18T06:03:35;64.17;;;27.37;;
8871;SDS011;4472;52.092;9.820;2023-11-18T06:06:25;60.00;;;28.07;;
8871;SDS011;4472;52.092;9.820;2023-11-18T06:09:12;56.67;;;28.77;;
8871;SDS011;4472;52.092;9.820;2023-11-18T06:12:06;73.47;;;30.87;;
8871;SDS011;4472;52.092;9.820;2023-11-18T06:14:54;70.60;;;33.50;;
8871;SDS011;4472;52.092;9.820;2023-11-18T06:17:43;62.40;;;30.60;;
8871;SDS011;4472;52.092;9.820;2023-11-18T06:20:31;59.47;;;30.07;;
8871;SDS011;4472;52.092;9.820;2023-11-18T06:23:22;64.77;;;30.70;;
8871;SDS011;4472;52.092;9.820;2023-11-18T06:26:09;60.70;;;30.40;;
8871;SDS011;4472;52.092;9.820;2023-11-18T06:28:56;64.60;;;29.93;;
8871;SDS011;4472;52.092;9.820;2023-11-18T06:31:45;63.13;;;30.70;;
8871;SDS011;4472;52.092;9.820;2023-11-18T06:34:32;61.10;;;30.73;;
8871;SDS011;4472;52.092;9.820;2023-11-18T06:37:19;71.93;;;32.87;;
8871;SDS011;4472;52.092;9.820;2023-11-18T06:40:09;75.67;;;30.87;;
8871;SDS011;4472;52.092;9.820;2023-11-18T06:43:04;63.90;;;29.97;;
8871;SDS011;4472;52.092;9.820;2023-11-18T06:45:56;61.87;;;29.43;;
8871;SDS011;4472;52.092;9.820;2023-11-18T06:48:43;66.70;;;30.10;;
8871;SDS011;4472;52.092;9.820;2023-11-18T06:51:31;62.60;;;28.53;;
8871;SDS011;4472;52.092;9.820;2023-11-18T06:54:20;65.53;;;29.47;;
8871;SDS011;4472;52.092;9.820;2023-11-18T06:57:09;68.83;;;29.77;;
8871;SDS011;4472;52.092;9.820;2023-11-18T06:59:57;64.73;;;28.10;;
8871;SDS011;4472;52.092;9.820;2023-11-18T07:02:44;68.13;;;29.77;;
8871;SDS011;4472;52.092;9.820;2023-11-18T07:05:32;67.10;;;29.77;;
8871;SDS011;4472;52.092;9.820;2023-11-18T07:08:19;68.97;;;29.93;;
8871;SDS011;4472;52.092;9.820;2023-11-18T07:11:07;62.70;;;30.53;;
8871;SDS011;4472;52.092;9.820;2023-11-18T07:13:55;68.67;;;31.07;;
8871;SDS011;4472;52.092;9.820;2023-11-18T07:16:42;60.73;;;29.03;;
8871;SDS011;4472;52.092;9.820;2023-11-18T07:19:30;65.27;;;29.37;;
8871;SDS011;4472;52.092;9.820;2023-11-18T07:22:18;59.47;;;28.63;;
8871;SDS011;4472;52.092;9.820;2023-11-18T07:25:06;62.57;;;30.23;;
8871;SDS011;4472;52.092;9.820;2023-11-18T07:27:54;62.87;;;30.50;;
8871;SDS011;4472;52.092;9.820;2023-11-18T07:30:43;60.23;;;29.57;;
8871;SDS011;4472;52.092;9.820;2023-11-18T07:33:32;66.43;;;32.20;;
8871;SDS011;4472;52.092;9.820;2023-11-18T07:36:20;63.23;;;30.73;;
8871;SDS011;4472;52.092;9.820;2023-11-18T07:39:07;62.17;;;31.53;;
8871;SDS011;4472;52.092;9.820;2023-11-18T07:42:01;61.77;;;30.60;;
8871;SDS011;4472;52.092;9.820;2023-11-18T07:44:50;66.10;;;31.10;;
8871;SDS011;4472;52.092;9.820;2023-11-18T07:47:39;68.33;;;30.27;;
8871;SDS011;4472;52.092;9.820;2023-11-18T07:50:26;65.93;;;30.03;;
8871;SDS011;4472;52.092;9.820;2023-11-18T07:53:13;56.97;;;28.37;;
8871;SDS011;4472;52.092;9.820;2023-11-18T07:56:01;62.40;;;28.33;;
8871;SDS011;4472;52.092;9.820;2023-11-18T07:58:48;65.80;;;29.40;;
8871;SDS011;4472;52.092;9.820;2023-11-18T08:01:55;61.20;;;29.83;;
8871;SDS011;4472;52.092;9.820;2023-11-18T08:04:44;69.87;;;31.53;;
8871;SDS011;4472;52.092;9.820;2023-11-18T08:07:32;66.10;;;29.13;;
8871;SDS011;4472;52.092;9.820;2023-11-18T08:10:20;62.67;;;28.90;;
8871;SDS011;4472;52.092;9.820;2023-11-18T08:13:08;65.23;;;29.30;;
8871;SDS011;4472;52.092;9.820;2023-11-18T08:15:56;63.87;;;30.00;;
8871;SDS011;4472;52.092;9.820;2023-11-18T08:18:44;74.47;;;32.47;;
8871;SDS011;4472;52.092;9.820;2023-11-18T08:21:32;64.40;;;28.90;;
8871;SDS011;4472;52.092;9.820;2023-11-18T08:24:20;66.80;;;29.67;;
8871;SDS011;4472;52.092;9.820;2023-11-18T08:27:07;58.97;;;27.70;;
8871;SDS011;4472;52.092;9.820;2023-11-18T08:29:55;59.07;;;26.53;;
8871;SDS011;4472;52.092;9.820;2023-11-18T08:32:42;58.03;;;27.93;;
8871;SDS011;4472;52.092;9.820;2023-11-18T08:35:30;61.67;;;27.77;;
8871;SDS011;4472;52.092;9.820;2023-11-18T08:38:19;60.37;;;27.80;;
8871;SDS011;4472;52.092;9.820;2023-11-18T08:41:06;57.43;;;28.70;;
8871;SDS011;4472;52.092;9.820;2023-11-18T08:43:54;57.50;;;28.83;;
8871;SDS011;4472;52.092;9.820;2023-11-18T08:46:42;52.00;;;26.60;;
8871;SDS011;4472;52.092;9.820;2023-11-18T08:49:29;52.73;;;26.67;;
8871;SDS011;4472;52.092;9.820;2023-11-18T08:52:19;50.60;;;25.23;;
8871;SDS011;4472;52.092;9.820;2023-11-18T08:55:08;53.10;;;26.33;;
8871;SDS011;4472;52.092;9.820;2023-11-18T08:58:06;49.87;;;23.77;;
8871;SDS011;4472;52.092;9.820;2023-11-18T09:01:04;48.23;;;24.60;;
8871;SDS011;4472;52.092;9.820;2023-11-18T09:03:58;50.07;;;24.27;;
8871;SDS011;4472;52.092;9.820;2023-11-18T09:06:47;46.80;;;23.07;;
8871;SDS011;4472;52.092;9.820;2023-11-18T09:09:34;44.47;;;23.83;;
8871;SDS011;4472;52.092;9.820;2023-11-18T09:12:23;43.23;;;23.27;;
8871;SDS011;4472;52.092;9.820;2023-11-18T09:15:10;45.73;;;22.83;;
8871;SDS011;4472;52.092;9.820;2023-11-18T09:18:07;41.73;;;20.93;;
8871;SDS011;4472;52.092;9.820;2023-11-18T09:20:55;42.50;;;21.07;;
8871;SDS011;4472;52.092;9.820;2023-11-18T09:23:45;39.77;;;21.53;;
8871;SDS011;4472;52.092;9.820;2023-11-18T09:26:33;34.33;;;18.30;;
8871;SDS011;4472;52.092;9.820;2023-11-18T09:29:22;35.53;;;18.53;;
8871;SDS011;4472;52.092;9.820;2023-11-18T09:32:10;25.83;;;15.00;;
8871;SDS011;4472;52.092;9.820;2023-11-18T09:34:58;25.07;;;14.70;;
8871;SDS011;4472;52.092;9.820;2023-11-18T09:37:51;24.57;;;12.53;;
8871;SDS011;4472;52.092;9.820;2023-11-18T09:40:38;18.77;;;11.43;;
8871;SDS011;4472;52.092;9.820;2023-11-18T09:43:29;16.70;;;10.60;;
8871;SDS011;4472;52.092;9.820;2023-11-18T09:46:21;13.53;;;9.43;;
8871;SDS011;4472;52.092;9.820;2023-11-18T09:49:12;14.07;;;8.93;;
8871;SDS011;4472;52.092;9.820;2023-11-18T09:52:15;17.17;;;8.40;;
8871;SDS011;4472;52.092;9.820;2023-11-18T09:55:07;14.57;;;9.20;;
8871;SDS011;4472;52.092;9.820;2023-11-18T09:58:05;15.33;;;8.57;;
8871;SDS011;4472;52.092;9.820;2023-11-18T10:01:00;11.87;;;8.63;;
8871;SDS011;4472;52.092;9.820;2023-11-18T10:03:50;12.77;;;8.67;;
8871;SDS011;4472;52.092;9.820;2023-11-18T10:06:38;17.13;;;9.40;;
8871;SDS011;4472;52.092;9.820;2023-11-18T10:09:30;14.37;;;8.70;;
8871;SDS011;4472;52.092;9.820;2023-11-18T10:12:22;13.03;;;8.50;;
8871;SDS011;4472;52.092;9.820;2023-11-18T10:15:13;14.77;;;9.00;;
8871;SDS011;4472;52.092;9.820;2023-11-18T10:18:02;14.07;;;8.73;;
8871;SDS011;4472;52.092;9.820;2023-11-18T10:21:08;13.67;;;8.20;;
8871;SDS011;4472;52.092;9.820;2023-11-18T10:23:59;15.37;;;9.07;;
8871;SDS011;4472;52.092;9.820;2023-11-18T10:26:54;13.17;;;8.33;;
8871;SDS011;4472;52.092;9.820;2023-11-18T10:29:42;17.20;;;10.10;;
8871;SDS011;4472;52.092;9.820;2023-11-18T10:32:30;21.53;;;11.43;;
8871;SDS011;4472;52.092;9.820;2023-11-18T10:35:21;15.03;;;9.60;;
8871;SDS011;4472;52.092;9.820;2023-11-18T10:38:09;16.77;;;9.90;;
8871;SDS011;4472;52.092;9.820;2023-11-18T10:40:57;15.83;;;9.57;;
8871;SDS011;4472;52.092;9.820;2023-11-18T10:43:47;17.27;;;8.87;;
8871;SDS011;4472;52.092;9.820;2023-11-18T10:46:34;11.63;;;7.03;;
8871;SDS011;4472;52.092;9.820;2023-11-18T10:49:22;10.60;;;6.87;;
8871;SDS011;4472;52.092;9.820;2023-11-18T10:52:09;10.63;;;7.00;;
8871;SDS011;4472;52.092;9.820;2023-11-18T10:54:59;13.00;;;7.60;;
8871;SDS011;4472;52.092;9.820;2023-11-18T10:57:52;11.10;;;7.70;;
8871;SDS011;4472;52.092;9.820;2023-11-18T11:00:46;10.27;;;7.23;;
8871;SDS011;4472;52.092;9.820;2023-11-18T11:03:34;10.03;;;7.00;;
8871;SDS011;4472;52.092;9.820;2023-11-18T11:06:22;9.33;;;7.23;;
8871;SDS011;4472;52.092;9.820;2023-11-18T11:09:10;13.60;;;7.53;;
8871;SDS011;4472;52.092;9.820;2023-11-18T11:12:04;10.27;;;7.63;;
8871;SDS011;4472;52.092;9.820;2023-11-18T11:15:01;12.03;;;7.53;;
8871;SDS011;4472;52.092;9.820;2023-11-18T11:18:01;9.70;;;7.23;;
8871;SDS011;4472;52.092;9.820;2023-11-18T11:20:57;10.83;;;7.67;;
8871;SDS011;4472;52.092;9.820;2023-11-18T11:23:55;9.43;;;7.53;;
8871;SDS011;4472;52.092;9.820;2023-11-18T11:26:59;9.37;;;7.10;;
8871;SDS011;4472;52.092;9.820;2023-11-18T11:30:03;11.90;;;7.27;;
8871;SDS011;4472;52.092;9.820;2023-11-18T11:32:58;12.93;;;8.07;;
8871;SDS011;4472;52.092;9.820;2023-11-18T11:35:55;14.27;;;7.97;;
8871;SDS011;4472;52.092;9.820;2023-11-18T11:38:43;12.70;;;7.80;;
8871;SDS011;4472;52.092;9.820;2023-11-18T11:41:32;11.30;;;7.97;;
8871;SDS011;4472;52.092;9.820;2023-11-18T11:44:21;9.23;;;7.50;;
8871;SDS011;4472;52.092;9.820;2023-11-18T11:47:14;10.60;;;7.57;;
8871;SDS011;4472;52.092;9.820;2023-11-18T11:50:03;10.93;;;7.67;;
8871;SDS011;4472;52.092;9.820;2023-11-18T11:52:59;13.00;;;7.23;;
8871;SDS011;4472;52.092;9.820;2023-11-18T11:55:53;12.37;;;7.53;;
8871;SDS011;4472;52.092;9.820;2023-11-18T11:58:50;12.57;;;8.57;;
8871;SDS011;4472;52.092;9.820;2023-11-18T12:01:41;10.07;;;7.90;;
8871;SDS011;4472;52.092;9.820;2023-11-18T12:04:32;10.50;;;7.23;;
8871;SDS011;4472;52.092;9.820;2023-11-18T12:07:19;9.43;;;7.70;;
8871;SDS011;4472;52.092;9.820;2023-11-18T12:10:08;8.80;;;7.60;;
8871;SDS011;4472;52.092;9.820;2023-11-18T12:13:07;10.37;;;7.50;;
8871;SDS011;4472;52.092;9.820;2023-11-18T12:16:01;11.87;;;7.40;;
8871;SDS011;4472;52.092;9.820;2023-11-18T12:18:59;11.90;;;8.10;;
8871;SDS011;4472;52.092;9.820;2023-11-18T12:22:30;14.87;;;8.73;;
8871;SDS011;4472;52.092;9.820;2023-11-18T12:25:50;10.60;;;7.50;;
8871;SDS011;4472;52.092;9.820;2023-11-18T12:28:40;11.10;;;7.50;;
8871;SDS011;4472;52.092;9.820;2023-11-18T12:31:39;11.27;;;7.27;;
8871;SDS011;4472;52.092;9.820;2023-11-18T12:37:54;10.53;;;7.70;;
8871;SDS011;4472;52.092;9.820;2023-11-18T12:41:17;11.13;;;8.17;;
8871;SDS011;4472;52.092;9.820;2023-11-18T12:44:25;11.07;;;8.60;;
8871;SDS011;4472;52.092;9.820;2023-11-18T12:47:17;10.20;;;8.20;;
8871;SDS011;4472;52.092;9.820;2023-11-18T12:50:15;8.77;;;6.63;;
8871;SDS011;4472;52.092;9.820;2023-11-18T12:53:10;11.30;;;8.00;;
8871;SDS011;4472;52.092;9.820;2023-11-18T12:56:00;12.77;;;7.27;;
8871;SDS011;4472;52.092;9.820;2023-11-18T12:58:48;10.97;;;7.43;;
8871;SDS011;4472;52.092;9.820;2023-11-18T13:01:36;9.83;;;7.37;;
8871;SDS011;4472;52.092;9.820;2023-11-18T13:04:23;8.23;;;6.83;;
8871;SDS011;4472;52.092;9.820;2023-11-18T13:07:12;9.80;;;7.40;;
8871;SDS011;4472;52.092;9.820;2023-11-18T13:10:00;9.53;;;6.93;;
8871;SDS011;4472;52.092;9.820;2023-11-18T13:12:49;12.17;;;8.10;;
8871;SDS011;4472;52.092;9.820;2023-11-18T13:15:37;10.77;;;7.90;;
8871;SDS011;4472;52.092;9.820;2023-11-18T13:18:24;8.37;;;7.23;;
8871;SDS011;4472;52.092;9.820;2023-11-18T13:21:15;9.17;;;7.00;;
8871;SDS011;4472;52.092;9.820;2023-11-18T13:24:04;9.93;;;7.00;;
8871;SDS011;4472;52.092;9.820;2023-11-18T13:26:53;12.03;;;7.47;;
8871;SDS011;4472;52.092;9.820;2023-11-18T13:29:43;8.87;;;7.30;;
8871;SDS011;4472;52.092;9.820;2023-11-18T13:32:34;9.80;;;7.60;;
8871;SDS011;4472;52.092;9.820;2023-11-18T13:35:21;10.57;;;7.33;;
8871;SDS011;4472;52.092;9.820;2023-11-18T13:38:09;11.93;;;7.73;;
8871;SDS011;4472;52.092;9.820;2023-11-18T13:40:57;7.63;;;6.87;;
8871;SDS011;4472;52.092;9.820;2023-11-18T13:43:48;9.43;;;6.93;;
8871;SDS011;4472;52.092;9.820;2023-11-18T13:46:37;8.77;;;6.77;;
8871;SDS011;4472;52.092;9.820;2023-11-18T13:49:27;9.27;;;7.23;;
8871;SDS011;4472;52.092;9.820;2023-11-18T13:52:15;9.60;;;7.20;;
8871;SDS011;4472;52.092;9.820;2023-11-18T13:55:05;9.30;;;7.10;;
8871;SDS011;4472;52.092;9.820;2023-11-18T13:57:56;11.67;;;7.53;;
8871;SDS011;4472;52.092;9.820;2023-11-18T14:00:43;8.27;;;7.33;;
8871;SDS011;4472;52.092;9.820;2023-11-18T14:03:31;10.07;;;6.70;;
8871;SDS011;4472;52.092;9.820;2023-11-18T14:06:21;9.40;;;7.33;;
8871;SDS011;4472;52.092;9.820;2023-11-18T14:09:08;9.30;;;7.23;;
8871;SDS011;4472;52.092;9.820;2023-11-18T14:11:56;14.20;;;7.90;;
8871;SDS011;4472;52.092;9.820;2023-11-18T14:14:45;9.53;;;7.73;;
8871;SDS011;4472;52.092;9.820;2023-11-18T14:17:32;10.13;;;7.50;;
8871;SDS011;4472;52.092;9.820;2023-11-18T14:20:20;9.03;;;7.77;;
8871;SDS011;4472;52.092;9.820;2023-11-18T14:23:08;9.93;;;8.00;;
8871;SDS011;4472;52.092;9.820;2023-11-18T14:25:56;10.90;;;8.10;;
8871;SDS011;4472;52.092;9.820;2023-11-18T14:28:43;10.03;;;7.93;;
8871;SDS011;4472;52.092;9.820;2023-11-18T14:31:33;9.73;;;7.57;;
8871;SDS011;4472;52.092;9.820;2023-11-18T14:34:21;10.90;;;8.40;;
8871;SDS011;4472;52.092;9.820;2023-11-18T14:37:09;10.53;;;8.10;;
8871;SDS011;4472;52.092;9.820;2023-11-18T14:39:56;11.50;;;8.50;;
8871;SDS011;4472;52.092;9.820;2023-11-18T14:42:44;11.77;;;8.17;;
8871;SDS011;4472;52.092;9.820;2023-11-18T14:45:33;12.40;;;8.90;;
8871;SDS011;4472;52.092;9.820;2023-11-18T14:48:21;11.67;;;8.23;;
8871;SDS011;4472;52.092;9.820;2023-11-18T14:51:09;15.77;;;8.90;;
8871;SDS011;4472;52.092;9.820;2023-11-18T14:53:56;10.83;;;8.33;;
8871;SDS011;4472;52.092;9.820;2023-11-18T14:56:43;10.37;;;7.70;;
8871;SDS011;4472;52.092;9.820;2023-11-18T14:59:33;10.93;;;7.43;;
8871;SDS011;4472;52.092;9.820;2023-11-18T15:02:20;9.17;;;7.53;;
8871;SDS011;4472;52.092;9.820;2023-11-18T15:05:09;8.73;;;7.27;;
8871;SDS011;4472;52.092;9.820;2023-11-18T15:07:56;12.17;;;7.63;;
8871;SDS011;4472;52.092;9.820;2023-11-18T15:10:44;11.53;;;8.13;;
8871;SDS011;4472;52.092;9.820;2023-11-18T15:13:32;14.27;;;8.73;;
8871;SDS011;4472;52.092;9.820;2023-11-18T15:16:19;12.57;;;9.57;;
8871;SDS011;4472;52.092;9.820;2023-11-18T15:19:06;12.20;;;9.63;;
8871;SDS011;4472;52.092;9.820;2023-11-18T15:21:55;15.60;;;10.47;;
8871;SDS011;4472;52.092;9.820;2023-11-18T15:24:42;13.23;;;10.20;;
8871;SDS011;4472;52.092;9.820;2023-11-18T15:27:29;14.37;;;10.60;;
8871;SDS011;4472;52.092;9.820;2023-11-18T15:30:18;14.80;;;10.87;;
8871;SDS011;4472;52.092;9.820;2023-11-18T15:33:07;15.57;;;10.60;;
8871;SDS011;4472;52.092;9.820;2023-11-18T15:35:55;15.33;;;11.00;;
8871;SDS011;4472;52.092;9.820;2023-11-18T15:38:43;15.00;;;11.80;;
8871;SDS011;4472;52.092;9.820;2023-11-18T15:41:30;15.10;;;11.30;;
8871;SDS011;4472;52.092;9.820;2023-11-18T15:44:18;17.00;;;12.07;;
8871;SDS011;4472;52.092;9.820;2023-11-18T15:47:06;18.87;;;12.33;;
8871;SDS011;4472;52.092;9.820;2023-11-18T15:49:55;15.77;;;11.90;;
8871;SDS011;4472;52.092;9.820;2023-11-18T15:52:43;16.73;;;11.87;;
8871;SDS011;4472;52.092;9.820;2023-11-18T15:55:32;20.80;;;12.60;;
8871;SDS011;4472;52.092;9.820;2023-11-18T15:58:21;18.27;;;12.20;;
8871;SDS011;4472;52.092;9.820;2023-11-18T16:01:11;15.27;;;11.10;;
8871;SDS011;4472;52.092;9.820;2023-11-18T16:03:58;12.87;;;10.97;;
8871;SDS011;4472;52.092;9.820;2023-11-18T16:06:45;14.23;;;10.67;;
8871;SDS011;4472;52.092;9.820;2023-11-18T16:09:33;15.00;;;10.63;;
8871;SDS011;4472;52.092;9.820;2023-11-18T16:12:21;14.67;;;9.80;;
8871;SDS011;4472;52.092;9.820;2023-11-18T16:15:09;10.93;;;8.93;;
8871;SDS011;4472;52.092;9.820;2023-11-18T16:17:59;10.77;;;8.83;;
8871;SDS011;4472;52.092;9.820;2023-11-18T16:20:46;10.43;;;8.97;;
8871;SDS011;4472;52.092;9.820;2023-11-18T16:23:34;11.30;;;8.83;;
8871;SDS011;4472;52.092;9.820;2023-11-18T16:26:21;12.10;;;8.77;;
8871;SDS011;4472;52.092;9.820;2023-11-18T16:29:10;11.50;;;8.13;;
8871;SDS011;4472;52.092;9.820;2023-11-18T16:31:57;11.13;;;7.87;;
8871;SDS011;4472;52.092;9.820;2023-11-18T16:34:44;9.77;;;7.73;;
8871;SDS011;4472;52.092;9.820;2023-11-18T16:37:32;8.27;;;7.37;;
8871;SDS011;4472;52.092;9.820;2023-11-18T16:40:19;9.07;;;7.37;;
8871;SDS011;4472;52.092;9.820;2023-11-18T16:43:08;8.63;;;6.83;;
8871;SDS011;4472;52.092;9.820;2023-11-18T16:45:57;8.23;;;6.80;;
8871;SDS011;4472;52.092;9.820;2023-11-18T16:48:44;8.70;;;7.33;;
8871;SDS011;4472;52.092;9.820;2023-11-18T16:51:31;10.27;;;7.40;;
8871;SDS011;4472;52.092;9.820;2023-11-18T16:54:18;8.73;;;6.80;;
8871;SDS011;4472;52.092;9.820;2023-11-18T16:57:07;7.67;;;6.23;;
8871;SDS011;4472;52.092;9.820;2023-11-18T16:59:54;9.83;;;7.37;;
8871;SDS011;4472;52.092;9.820;2023-11-18T17:02:43;8.57;;;6.90;;
8871;SDS011;4472;52.092;9.820;2023-11-18T17:05:32;8.80;;;7.43;;
8871;SDS011;4472;52.092;9.820;2023-11-18T17:08:19;7.83;;;6.97;;
8871;SDS011;4472;52.092;9.820;2023-11-18T17:11:07;9.50;;;6.97;;
8871;SDS011;4472;52.092;9.820;2023-11-18T17:13:54;10.63;;;7.77;;